Azalea Ace — A8ZJ6 — position and weather

sailwx.info

Track history (hours):
 
Tides and Currents Weather Stations Pressure Air Temp Water Temp Dewpoint Dewpoint Depression Visibility Wind Speed Wind Dir Waves Ship Positions

Azalea Ace

Last reported at 2016-Feb-13 18:32 UTC. Time now 2016-Feb-13 19:26 UTC.
Position N 30°28' W 123°32'.

Length 180 m; draft 7.3 m.

Type: Cargo ship. MMSI: 636015228.

Date/timePositionNaut miles runAvg speedWind from/ knotsBaromVisibWave heightAir tempDewpointWater temp
2016-Feb-13 18:32N 30°28' W 123°32'8416.8
2016-Feb-13 13:34N 30°30' W 121°55'4016.7
2016-Feb-13 11:09N 30°37' W 121°09'3417.1
2016-Feb-13 09:10N 30°44' W 120°31'1217.6
2016-Feb-13 08:31N 30°46' W 120°17'3517.8
2016-Feb-13 06:33N 30°53' W 119°38'1817.6
2016-Feb-13 05:33N 30°57' W 119°18'1817.8
2016-Feb-13 04:32N 31°01' W 118°57'2117.5
2016-Feb-13 03:20N 31°07' W 118°33'1418.3
2016-Feb-13 02:33N 31°18' W 118°23'1818.3
2016-Feb-13 01:33N 31°33' W 118°11'1818.4
2016-Feb-13 00:34N 31°48' W 117°58'1818.3
2016-Feb-12 23:33N 32°02' W 117°45'1818.0
2016-Feb-12 22:33N 32°17' W 117°32'1312.9
2016-Feb-12 21:33N 32°27' W 117°23'1010.3
2016-Feb-12 20:33N 32°36' W 117°16'8 8.4
2016-Feb-12 19:33N 32°43' W 117°12'6 5.7
2016-Feb-12 18:33N 32°39' W 117°07'0 0.0
2016-Feb-12 17:33N 32°39' W 117°07'0 0.0
2016-Feb-12 16:27N 32°39' W 117°07'0 0.0
2016-Feb-12 15:12N 32°39' W 117°07'0 0.0
2016-Feb-12 14:33N 32°39' W 117°07'6 5.7
2016-Feb-12 13:33N 32°43' W 117°12'6 6.3
2016-Feb-12 12:33N 32°37' W 117°14'3 2.6
2016-Feb-12 11:33N 32°37' W 117°17'5 4.5
2016-Feb-12 10:33N 32°38' W 117°23'7 6.9
2016-Feb-12 09:33N 32°38' W 117°31'1010.0
2016-Feb-12 08:33N 32°39' W 117°42'1010.1
2016-Feb-12 07:33N 32°45' W 117°52'1010.2
2016-Feb-12 06:33N 32°51' W 118°02'1110.6
2016-Feb-12 05:33N 32°57' W 118°12'1110.5
2016-Feb-12 04:33N 33°04' W 118°22'10 9.9
2016-Feb-12 03:33N 33°12' W 118°30'10 9.8
2016-Feb-12 02:33N 33°19' W 118°38'10 9.3
2016-Feb-12 01:31N 33°26' W 118°45'9 9.5
2016-Feb-12 00:33N 33°33' W 118°53'11 9.8
2016-Feb-11 23:28N 33°41' W 119°01'80 3.2
2016-Feb-10 22:26N 34°18' W 120°26'7 8.1
2016-Feb-10 21:33N 34°20' W 120°34'8 8.1
2016-Feb-10 20:31N 34°22' W 120°44'8 8.6
2016-Feb-10 19:33N 34°25' W 120°53'1111.1
2016-Feb-10 18:33N 34°34' W 121°01'1212.0
2016-Feb-10 17:33N 34°44' W 121°09'1212.0
2016-Feb-10 16:33N 34°54' W 121°17'1212.2
2016-Feb-10 15:33N 35°05' W 121°25'1212.3
2016-Feb-10 14:33N 35°15' W 121°33'1212.0
2016-Feb-10 13:33N 35°25' W 121°41'1212.0
2016-Feb-10 12:33N 35°35' W 121°50'6311.5
2016-Feb-10 07:03N 36°31' W 122°25'611.7
2016-Feb-10 06:32N 36°37' W 122°28'1111.6
2016-Feb-10 05:33N 36°48' W 122°33'1212.0
2016-Feb-10 04:33N 36°59' W 122°38'1211.9
2016-Feb-10 03:33N 37°10' W 122°43'1211.6
2016-Feb-10 02:33N 37°22' W 122°44'1211.9
2016-Feb-10 01:33N 37°34' W 122°43'1212.0
2016-Feb-10 00:33N 37°45' W 122°40'1413.9
2016-Feb-09 23:34N 37°52' W 122°25'1313.3
2016-Feb-09 22:33N 38°04' W 122°17'7 2.0
2016-Feb-09 19:10N 38°02' W 122°08'0 0.0
2016-Feb-09 18:28N 38°02' W 122°08'0 0.0
2016-Feb-09 16:28N 38°02' W 122°08'0 0.0
2016-Feb-09 15:28N 38°02' W 122°08'0 0.0
2016-Feb-09 14:28N 38°02' W 122°08'0 0.0
2016-Feb-09 13:16N 38°02' W 122°08'0 0.0
2016-Feb-09 12:28N 38°02' W 122°08'0 0.0
2016-Feb-09 11:28N 38°02' W 122°08'0 0.0
2016-Feb-09 10:16N 38°02' W 122°08'0 0.0
2016-Feb-09 09:28N 38°02' W 122°08'0 0.0
2016-Feb-09 08:28N 38°02' W 122°08'0 0.0
2016-Feb-09 07:28N 38°02' W 122°08'0 0.0
2016-Feb-09 06:28N 38°02' W 122°08'0 0.0
2016-Feb-09 05:28N 38°02' W 122°08'0 0.0
2016-Feb-09 04:28N 38°02' W 122°08'0 0.0
2016-Feb-08 18:10N 38°02' W 122°08'0 0.0
2016-Feb-08 17:28N 38°02' W 122°08'0 0.0
2016-Feb-08 16:28N 38°02' W 122°08'0 0.0
2016-Feb-08 15:22N 38°02' W 122°08'0 0.0
2016-Feb-08 14:16N 38°02' W 122°08'0 0.0
2016-Feb-08 13:28N 38°02' W 122°08'0 0.0
2016-Feb-08 12:28N 38°02' W 122°08'0 0.0
2016-Feb-08 11:28N 38°02' W 122°08'0 0.0
2016-Feb-08 10:28N 38°02' W 122°08'0 0.0
2016-Feb-08 08:22N 38°02' W 122°08'0 0.1
2016-Feb-08 05:33N 38°02' W 122°08'1010.4
2016-Feb-08 04:33N 38°02' W 122°22'1211.5
2016-Feb-08 03:34N 37°51' W 122°25'1414.2
2016-Feb-08 02:33N 37°44' W 122°41'1111.2
2016-Feb-08 01:33N 37°50' W 122°53'1514.8
2016-Feb-08 00:33N 37°57' W 123°10'1716.7
2016-Feb-07 23:33N 38°10' W 123°23'1716.7
2016-Feb-07 22:33N 38°24' W 123°35'1716.7
2016-Feb-07 21:33N 38°37' W 123°48'1716.6
2016-Feb-07 20:33N 38°51' W 123°60'35716.9
2016-Feb-06 23:26N 44°43' W 125°18'1717.1
2016-Feb-06 22:25N 45°01' W 125°18'1717.3
2016-Feb-06 21:24N 45°18' W 125°19'1517.4
2016-Feb-06 20:33N 45°33' W 125°20'1717.1
2016-Feb-06 19:33N 45°50' W 125°21'1716.6
2016-Feb-06 18:33N 46°07' W 125°22'1615.6
2016-Feb-06 17:33N 46°22' W 125°23'1515.1
2016-Feb-06 16:33N 46°37' W 125°24'10013.5
2016-Feb-06 09:11N 48°17' W 125°15'711.9
2016-Feb-06 08:33N 48°23' W 125°09'1211.5
2016-Feb-06 07:32N 48°31' W 124°57'4314.2
2016-Feb-06 04:32N 48°17' W 123°56'1515.3
2016-Feb-06 03:33N 48°15' W 123°34'1110.9
2016-Feb-06 02:33N 48°08' W 123°22'1716.9
2016-Feb-06 01:33N 48°12' W 122°57'1818.2
2016-Feb-06 00:33N 48°00' W 122°36'1818.0
2016-Feb-05 23:33N 47°44' W 122°27'1818.1
2016-Feb-05 22:33N 47°26' W 122°23'9 9.2
2016-Feb-05 21:33N 47°17' W 122°25'2 1.4
2016-Feb-05 20:28N 47°16' W 122°23'0 0.0
2016-Feb-05 19:31N 47°16' W 122°23'0 0.0
2016-Feb-05 18:31N 47°16' W 122°23'0 0.0
2016-Feb-05 17:22N 47°16' W 122°23'0 0.0
2016-Feb-05 16:28N 47°16' W 122°23'0 0.0
2016-Feb-05 15:31N 47°16' W 122°23'0 0.0
2016-Feb-05 14:28N 47°16' W 122°23'0 0.0
2016-Feb-05 13:31N 47°16' W 122°23'0 0.0
2016-Feb-05 12:22N 47°16' W 122°23'0 0.0
2016-Feb-05 11:31N 47°16' W 122°23'0 0.0
2016-Feb-05 10:31N 47°16' W 122°23'0 0.0
2016-Feb-05 09:31N 47°16' W 122°23'0 0.0
2016-Feb-05 08:28N 47°16' W 122°23'0 0.0
2016-Feb-05 07:31N 47°16' W 122°23'0 0.0
2016-Feb-05 06:31N 47°16' W 122°23'0 0.0
2016-Feb-05 05:31N 47°16' W 122°23'0 0.0
2016-Feb-05 04:31N 47°16' W 122°23'0 0.0
2016-Feb-05 03:31N 47°16' W 122°23'0 0.0
2016-Feb-05 02:31N 47°16' W 122°23'0 0.1
2016-Feb-05 01:33N 47°16' W 122°23'0 0.0
2016-Feb-05 00:28N 47°16' W 122°23'0 0.0
2016-Feb-04 23:31N 47°16' W 122°23'0 0.0
2016-Feb-04 22:22N 47°16' W 122°23'0 0.0
2016-Feb-04 21:28N 47°16' W 122°23'0 0.0
2016-Feb-04 20:28N 47°16' W 122°23'0 0.0
2016-Feb-04 19:28N 47°16' W 122°23'0 0.0
2016-Feb-04 18:31N 47°16' W 122°23'0 0.0
2016-Feb-04 17:28N 47°16' W 122°23'0 0.0
2016-Feb-04 16:25N 47°16' W 122°23'0 0.2
2016-Feb-04 15:34N 47°16' W 122°23'5 5.0
2016-Feb-04 14:33N 47°20' W 122°27'1414.0
2016-Feb-04 13:34N 47°34' W 122°27'1717.0
2016-Feb-04 12:34N 47°51' W 122°28'1616.4
2016-Feb-04 11:33N 48°05' W 122°40'1716.6
2016-Feb-04 10:33N 48°12' W 123°03'1514.6
2016-Feb-04 09:34N 48°10' W 123°24'1212.4
2016-Feb-04 08:33N 48°22' W 123°24'1110.6
2016-Feb-04 07:33N 48°30' W 123°13'1414.2
2016-Feb-04 06:33N 48°44' W 123°09'1211.6
2016-Feb-04 05:34N 48°55' W 123°11'1211.8
2016-Feb-04 04:33N 49°06' W 123°19'1110.7
2016-Feb-04 03:33N 49°08' W 123°03'6 6.0
2016-Feb-04 02:33N 49°11' W 122°55'0 0.0
2016-Feb-04 01:33N 49°11' W 122°55'0 0.0
2016-Feb-04 00:33N 49°11' W 122°55'0 0.0
2016-Feb-03 23:33N 49°11' W 122°55'0 0.0
2016-Feb-03 22:33N 49°11' W 122°55'0 0.0
2016-Feb-03 21:33N 49°11' W 122°55'3 3.1
2016-Feb-03 20:34N 49°09' W 122°59'9 9.0
2016-Feb-03 19:34N 49°08' W 123°13'7 6.6
2016-Feb-03 18:33N 49°02' W 123°17'  
Track history (hours):
 
Tides and Currents Weather Stations Pressure Air Temp Water Temp Dewpoint Dewpoint Depression Visibility Wind Speed Wind Dir Waves Ship Positions

Azalea Ace

Last reported at 2016-Feb-13 18:32 UTC. Time now 2016-Feb-13 19:26 UTC.
Position N 30°28' W 123°32'.

Length 180 m; draft 7.3 m.

Type: Cargo ship. MMSI: 636015228.

Date/timePositionNaut miles runAvg speedWind from/ knotsBaromVisibWave heightAir tempDewpointWater temp
2016-Feb-13 18:32N 30°28' W 123°32'8416.8
2016-Feb-13 13:34N 30°30' W 121°55'4016.7
2016-Feb-13 11:09N 30°37' W 121°09'3417.1
2016-Feb-13 09:10N 30°44' W 120°31'1217.6
2016-Feb-13 08:31N 30°46' W 120°17'3517.8
2016-Feb-13 06:33N 30°53' W 119°38'1817.6
2016-Feb-13 05:33N 30°57' W 119°18'1817.8
2016-Feb-13 04:32N 31°01' W 118°57'2117.5
2016-Feb-13 03:20N 31°07' W 118°33'1418.3
2016-Feb-13 02:33N 31°18' W 118°23'1818.3
2016-Feb-13 01:33N 31°33' W 118°11'1818.4
2016-Feb-13 00:34N 31°48' W 117°58'1818.3
2016-Feb-12 23:33N 32°02' W 117°45'1818.0
2016-Feb-12 22:33N 32°17' W 117°32'1312.9
2016-Feb-12 21:33N 32°27' W 117°23'1010.3
2016-Feb-12 20:33N 32°36' W 117°16'8 8.4
2016-Feb-12 19:33N 32°43' W 117°12'6 5.7
2016-Feb-12 18:33N 32°39' W 117°07'0 0.0
2016-Feb-12 17:33N 32°39' W 117°07'0 0.0
2016-Feb-12 16:27N 32°39' W 117°07'0 0.0
2016-Feb-12 15:12N 32°39' W 117°07'0 0.0
2016-Feb-12 14:33N 32°39' W 117°07'6 5.7
2016-Feb-12 13:33N 32°43' W 117°12'6 6.3
2016-Feb-12 12:33N 32°37' W 117°14'3 2.6
2016-Feb-12 11:33N 32°37' W 117°17'5 4.5
2016-Feb-12 10:33N 32°38' W 117°23'7 6.9
2016-Feb-12 09:33N 32°38' W 117°31'1010.0
2016-Feb-12 08:33N 32°39' W 117°42'1010.1
2016-Feb-12 07:33N 32°45' W 117°52'1010.2
2016-Feb-12 06:33N 32°51' W 118°02'1110.6
2016-Feb-12 05:33N 32°57' W 118°12'1110.5
2016-Feb-12 04:33N 33°04' W 118°22'10 9.9
2016-Feb-12 03:33N 33°12' W 118°30'10 9.8
2016-Feb-12 02:33N 33°19' W 118°38'10 9.3
2016-Feb-12 01:31N 33°26' W 118°45'9 9.5
2016-Feb-12 00:33N 33°33' W 118°53'11 9.8
2016-Feb-11 23:28N 33°41' W 119°01'80 3.2
2016-Feb-10 22:26N 34°18' W 120°26'7 8.1
2016-Feb-10 21:33N 34°20' W 120°34'8 8.1
2016-Feb-10 20:31N 34°22' W 120°44'8 8.6
2016-Feb-10 19:33N 34°25' W 120°53'1111.1
2016-Feb-10 18:33N 34°34' W 121°01'1212.0
2016-Feb-10 17:33N 34°44' W 121°09'1212.0
2016-Feb-10 16:33N 34°54' W 121°17'1212.2
2016-Feb-10 15:33N 35°05' W 121°25'1212.3
2016-Feb-10 14:33N 35°15' W 121°33'1212.0
2016-Feb-10 13:33N 35°25' W 121°41'1212.0
2016-Feb-10 12:33N 35°35' W 121°50'6311.5
2016-Feb-10 07:03N 36°31' W 122°25'611.7
2016-Feb-10 06:32N 36°37' W 122°28'1111.6
2016-Feb-10 05:33N 36°48' W 122°33'1212.0
2016-Feb-10 04:33N 36°59' W 122°38'1211.9
2016-Feb-10 03:33N 37°10' W 122°43'1211.6
2016-Feb-10 02:33N 37°22' W 122°44'1211.9
2016-Feb-10 01:33N 37°34' W 122°43'1212.0
2016-Feb-10 00:33N 37°45' W 122°40'1413.9
2016-Feb-09 23:34N 37°52' W 122°25'1313.3
2016-Feb-09 22:33N 38°04' W 122°17'7 2.0
2016-Feb-09 19:10N 38°02' W 122°08'0 0.0
2016-Feb-09 18:28N 38°02' W 122°08'0 0.0
2016-Feb-09 16:28N 38°02' W 122°08'0 0.0
2016-Feb-09 15:28N 38°02' W 122°08'0 0.0
2016-Feb-09 14:28N 38°02' W 122°08'0 0.0
2016-Feb-09 13:16N 38°02' W 122°08'0 0.0
2016-Feb-09 12:28N 38°02' W 122°08'0 0.0
2016-Feb-09 11:28N 38°02' W 122°08'0 0.0
2016-Feb-09 10:16N 38°02' W 122°08'0 0.0
2016-Feb-09 09:28N 38°02' W 122°08'0 0.0
2016-Feb-09 08:28N 38°02' W 122°08'0 0.0
2016-Feb-09 07:28N 38°02' W 122°08'0 0.0
2016-Feb-09 06:28N 38°02' W 122°08'0 0.0
2016-Feb-09 05:28N 38°02' W 122°08'0 0.0
2016-Feb-09 04:28N 38°02' W 122°08'0 0.0
2016-Feb-08 18:10N 38°02' W 122°08'0 0.0
2016-Feb-08 17:28N 38°02' W 122°08'0 0.0
2016-Feb-08 16:28N 38°02' W 122°08'0 0.0
2016-Feb-08 15:22N 38°02' W 122°08'0 0.0
2016-Feb-08 14:16N 38°02' W 122°08'0 0.0
2016-Feb-08 13:28N 38°02' W 122°08'0 0.0
2016-Feb-08 12:28N 38°02' W 122°08'0 0.0
2016-Feb-08 11:28N 38°02' W 122°08'0 0.0
2016-Feb-08 10:28N 38°02' W 122°08'0 0.0
2016-Feb-08 08:22N 38°02' W 122°08'0 0.1
2016-Feb-08 05:33N 38°02' W 122°08'1010.4
2016-Feb-08 04:33N 38°02' W 122°22'1211.5
2016-Feb-08 03:34N 37°51' W 122°25'1414.2
2016-Feb-08 02:33N 37°44' W 122°41'1111.2
2016-Feb-08 01:33N 37°50' W 122°53'1514.8
2016-Feb-08 00:33N 37°57' W 123°10'1716.7
2016-Feb-07 23:33N 38°10' W 123°23'1716.7
2016-Feb-07 22:33N 38°24' W 123°35'1716.7
2016-Feb-07 21:33N 38°37' W 123°48'1716.6
2016-Feb-07 20:33N 38°51' W 123°60'35716.9
2016-Feb-06 23:26N 44°43' W 125°18'1717.1
2016-Feb-06 22:25N 45°01' W 125°18'1717.3
2016-Feb-06 21:24N 45°18' W 125°19'1517.4
2016-Feb-06 20:33N 45°33' W 125°20'1717.1
2016-Feb-06 19:33N 45°50' W 125°21'1716.6
2016-Feb-06 18:33N 46°07' W 125°22'1615.6
2016-Feb-06 17:33N 46°22' W 125°23'1515.1
2016-Feb-06 16:33N 46°37' W 125°24'10013.5
2016-Feb-06 09:11N 48°17' W 125°15'711.9
2016-Feb-06 08:33N 48°23' W 125°09'1211.5
2016-Feb-06 07:32N 48°31' W 124°57'4314.2
2016-Feb-06 04:32N 48°17' W 123°56'1515.3
2016-Feb-06 03:33N 48°15' W 123°34'1110.9
2016-Feb-06 02:33N 48°08' W 123°22'1716.9
2016-Feb-06 01:33N 48°12' W 122°57'1818.2
2016-Feb-06 00:33N 48°00' W 122°36'1818.0
2016-Feb-05 23:33N 47°44' W 122°27'1818.1
2016-Feb-05 22:33N 47°26' W 122°23'9 9.2
2016-Feb-05 21:33N 47°17' W 122°25'2 1.4
2016-Feb-05 20:28N 47°16' W 122°23'0 0.0
2016-Feb-05 19:31N 47°16' W 122°23'0 0.0
2016-Feb-05 18:31N 47°16' W 122°23'0 0.0
2016-Feb-05 17:22N 47°16' W 122°23'0 0.0
2016-Feb-05 16:28N 47°16' W 122°23'0 0.0
2016-Feb-05 15:31N 47°16' W 122°23'0 0.0
2016-Feb-05 14:28N 47°16' W 122°23'0 0.0
2016-Feb-05 13:31N 47°16' W 122°23'0 0.0
2016-Feb-05 12:22N 47°16' W 122°23'0 0.0
2016-Feb-05 11:31N 47°16' W 122°23'0 0.0
2016-Feb-05 10:31N 47°16' W 122°23'0 0.0
2016-Feb-05 09:31N 47°16' W 122°23'0 0.0
2016-Feb-05 08:28N 47°16' W 122°23'0 0.0
2016-Feb-05 07:31N 47°16' W 122°23'0 0.0
2016-Feb-05 06:31N 47°16' W 122°23'0 0.0
2016-Feb-05 05:31N 47°16' W 122°23'0 0.0
2016-Feb-05 04:31N 47°16' W 122°23'0 0.0
2016-Feb-05 03:31N 47°16' W 122°23'0 0.0
2016-Feb-05 02:31N 47°16' W 122°23'0 0.1
2016-Feb-05 01:33N 47°16' W 122°23'0 0.0
2016-Feb-05 00:28N 47°16' W 122°23'0 0.0
2016-Feb-04 23:31N 47°16' W 122°23'0 0.0
2016-Feb-04 22:22N 47°16' W 122°23'0 0.0
2016-Feb-04 21:28N 47°16' W 122°23'0 0.0
2016-Feb-04 20:28N 47°16' W 122°23'0 0.0
2016-Feb-04 19:28N 47°16' W 122°23'0 0.0
2016-Feb-04 18:31N 47°16' W 122°23'0 0.0
2016-Feb-04 17:28N 47°16' W 122°23'0 0.0
2016-Feb-04 16:25N 47°16' W 122°23'0 0.2
2016-Feb-04 15:34N 47°16' W 122°23'5 5.0
2016-Feb-04 14:33N 47°20' W 122°27'1414.0
2016-Feb-04 13:34N 47°34' W 122°27'1717.0
2016-Feb-04 12:34N 47°51' W 122°28'1616.4
2016-Feb-04 11:33N 48°05' W 122°40'1716.6
2016-Feb-04 10:33N 48°12' W 123°03'1514.6
2016-Feb-04 09:34N 48°10' W 123°24'1212.4
2016-Feb-04 08:33N 48°22' W 123°24'1110.6
2016-Feb-04 07:33N 48°30' W 123°13'1414.2
2016-Feb-04 06:33N 48°44' W 123°09'1211.6
2016-Feb-04 05:34N 48°55' W 123°11'1211.8
2016-Feb-04 04:33N 49°06' W 123°19'1110.7
2016-Feb-04 03:33N 49°08' W 123°03'6 6.0
2016-Feb-04 02:33N 49°11' W 122°55'0 0.0
2016-Feb-04 01:33N 49°11' W 122°55'0 0.0
2016-Feb-04 00:33N 49°11' W 122°55'0 0.0
2016-Feb-03 23:33N 49°11' W 122°55'0 0.0
2016-Feb-03 22:33N 49°11' W 122°55'0 0.0
2016-Feb-03 21:33N 49°11' W 122°55'3 3.1
2016-Feb-03 20:34N 49°09' W 122°59'9 9.0
2016-Feb-03 19:34N 49°08' W 123°13'7 6.6
2016-Feb-03 18:33N 49°02' W 123°17'  

Dump ship's entire track history